Time;durP1;ratioP1;P1;durP2;ratioP2;P2;SDS_P1;SDS_P2;PMS_P1;PMS_P2;Temp;Humidity;BMP_temperature;BMP_pressure;BME280_temperature;BME280_humidity;BME280_pressure;Samples;Min_cycle;Max_cycle;Signal;HPM_P1;HPM_P2
2023/03/19 00:01:06;;;;;;;6.78;3.65;;;12.60;96.90;;;;;;5034263;28;20482;-66
2023/03/19 00:03:32;;;;;;;7.72;4.10;;;12.60;97.30;;;;;;5033986;28;20037;-67
2023/03/19 00:05:58;;;;;;;10.20;3.97;;;12.70;97.90;;;;;;5034969;28;20381;-66
2023/03/19 00:08:23;;;;;;;10.77;5.03;;;12.50;97.90;;;;;;5034178;28;20191;-66
2023/03/19 00:10:49;;;;;;;9.30;4.13;;;12.60;99.50;;;;;;5034552;28;20052;-66
2023/03/19 00:13:15;;;;;;;7.20;3.90;;;12.50;99.60;;;;;;5034774;28;20029;-66
2023/03/19 00:15:41;;;;;;;8.52;4.22;;;12.50;99.90;;;;;;5034171;28;20036;-66
2023/03/19 00:18:07;;;;;;;7.13;4.27;;;12.50;99.90;;;;;;5033953;28;20095;-67
2023/03/19 00:20:33;;;;;;;7.75;4.72;;;12.50;99.90;;;;;;5034010;28;20029;-67
2023/03/19 00:22:58;;;;;;;7.68;3.50;;;12.50;99.90;;;;;;5033292;28;20029;-66
2023/03/19 00:25:24;;;;;;;8.50;4.00;;;12.60;99.90;;;;;;5016302;28;20026;-65
2023/03/19 00:27:51;;;;;;;7.10;3.73;;;12.70;99.90;;;;;;5024617;28;20018;-67
2023/03/19 00:30:17;;;;;;;6.55;4.32;;;12.70;99.90;;;;;;5016276;28;20095;-66
2023/03/19 00:32:42;;;;;;;13.80;7.87;;;12.60;99.90;;;;;;5015041;28;20160;-67
2023/03/19 00:35:08;;;;;;;12.67;8.17;;;12.50;99.90;;;;;;5014616;28;20110;-67
2023/03/19 00:37:34;;;;;;;9.73;4.72;;;12.50;99.90;;;;;;5030882;28;20021;-67
2023/03/19 00:40:00;;;;;;;7.97;4.35;;;12.70;99.90;;;;;;5015872;28;20511;-67
2023/03/19 00:42:26;;;;;;;8.75;4.53;;;12.50;99.90;;;;;;5033968;28;20075;-66
2023/03/19 00:44:51;;;;;;;10.52;4.95;;;12.50;99.90;;;;;;5033931;28;20026;-67
2023/03/19 00:47:17;;;;;;;8.57;4.33;;;12.60;99.90;;;;;;5034084;28;20083;-66
2023/03/19 00:49:43;;;;;;;7.30;3.87;;;12.50;99.90;;;;;;5033582;28;20474;-67
2023/03/19 00:52:08;;;;;;;6.03;3.40;;;12.50;99.90;;;;;;5033484;28;20372;-66
2023/03/19 00:54:34;;;;;;;5.23;3.70;;;12.60;99.90;;;;;;5033732;28;20056;-67
2023/03/19 00:56:59;;;;;;;5.67;3.50;;;12.40;99.90;;;;;;5034128;28;20279;-66
2023/03/19 00:59:25;;;;;;;53.67;31.00;;;12.40;99.90;;;;;;5015766;28;20506;-66
2023/03/19 01:01:51;;;;;;;9.20;4.63;;;12.30;99.90;;;;;;5015484;28;20060;-66
2023/03/19 01:04:17;;;;;;;6.57;3.67;;;12.30;99.90;;;;;;5033559;28;20056;-66
2023/03/19 01:06:43;;;;;;;;;;;12.40;99.90;;;;;;5032746;28;20021;-66
2023/03/19 01:09:09;;;;;;;9.05;3.63;;;12.50;99.90;;;;;;5033169;28;20274;-66
2023/03/19 01:11:35;;;;;;;5.43;3.20;;;12.50;99.90;;;;;;5033135;28;20039;-66
2023/03/19 01:14:01;;;;;;;6.30;3.55;;;12.40;99.90;;;;;;5033153;28;20475;-66
2023/03/19 01:16:27;;;;;;;;;;;12.60;99.90;;;;;;5015774;28;20031;-66
2023/03/19 01:18:53;;;;;;;7.47;3.80;;;12.40;99.90;;;;;;5032963;28;19995;-66
2023/03/19 01:21:19;;;;;;;8.77;3.75;;;12.30;99.90;;;;;;5031975;28;20036;-66
2023/03/19 01:23:45;;;;;;;7.40;3.53;;;12.30;99.90;;;;;;5032990;28;20558;-67
2023/03/19 01:26:11;;;;;;;7.73;3.57;;;12.20;99.90;;;;;;5033205;28;20100;-66
2023/03/19 01:28:37;;;;;;;6.53;3.05;;;12.10;99.90;;;;;;5015314;28;20021;-67
2023/03/19 01:31:06;;;;;;;4.43;3.20;;;12.00;99.90;;;;;;5015425;28;20472;-67
2023/03/19 01:33:32;;;;;;;7.60;3.95;;;11.90;99.90;;;;;;5015286;28;20025;-67
2023/03/19 01:36:01;;;;;;;7.40;3.28;;;11.90;99.90;;;;;;5030989;28;20029;-68
2023/03/19 01:38:27;;;;;;;5.78;3.10;;;11.80;99.90;;;;;;5013742;28;20049;-66
2023/03/19 01:40:53;;;;;;;6.40;3.03;;;11.80;99.90;;;;;;4996403;28;20117;-66
2023/03/19 01:43:21;;;;;;;6.63;3.33;;;11.80;99.90;;;;;;5013842;28;20054;-67
2023/03/19 01:45:50;;;;;;;6.40;2.88;;;11.80;99.90;;;;;;5014753;28;20025;-66
2023/03/19 01:48:29;;;;;;;7.40;3.05;;;11.80;99.90;;;;;;5014998;28;20033;-66
2023/03/19 01:50:56;;;;;;;6.05;3.15;;;11.90;99.90;;;;;;5014309;28;20191;-67
2023/03/19 01:53:26;;;;;;;7.32;3.08;;;11.80;99.90;;;;;;5016079;28;20037;-66
2023/03/19 01:55:56;;;;;;;5.63;3.03;;;11.90;99.90;;;;;;5031416;28;20063;-67
2023/03/19 01:58:21;;;;;;;6.80;2.90;;;12.10;99.90;;;;;;5033427;28;20029;-67
2023/03/19 02:00:47;;;;;;;6.77;2.97;;;12.20;99.90;;;;;;5033905;28;20088;-66
2023/03/19 02:03:13;;;;;;;7.40;3.20;;;12.20;99.90;;;;;;5016891;28;20032;-66
2023/03/19 02:05:42;;;;;;;5.72;3.25;;;12.20;99.90;;;;;;5034815;28;20079;-66
2023/03/19 02:08:12;;;;;;;7.28;3.00;;;12.30;99.90;;;;;;5016126;28;20506;-66
2023/03/19 02:10:39;;;;;;;6.03;3.13;;;12.20;99.90;;;;;;5014528;28;20104;-66
2023/03/19 02:13:05;;;;;;;7.47;3.45;;;12.30;99.90;;;;;;5014194;28;20105;-66
2023/03/19 02:15:31;;;;;;;7.75;3.50;;;12.20;99.90;;;;;;5014198;28;20060;-67
2023/03/19 02:17:57;;;;;;;7.47;3.63;;;12.20;99.90;;;;;;5013735;28;20041;-66
2023/03/19 02:20:31;;;;;;;7.07;3.20;;;12.10;99.90;;;;;;5013151;28;20022;-66
2023/03/19 02:23:22;;;;;;;7.30;3.25;;;12.10;99.90;;;;;;5012820;28;20045;-67
2023/03/19 02:25:53;;;;;;;6.90;3.00;;;12.00;99.90;;;;;;5013647;28;20113;-66
2023/03/19 02:28:21;;;;;;;8.40;3.20;;;11.90;99.90;;;;;;5014543;28;20486;-67
2023/03/19 02:30:47;;;;;;;6.95;3.35;;;12.00;99.90;;;;;;5015043;28;20026;-66
2023/03/19 02:33:16;;;;;;;6.07;3.35;;;12.00;99.90;;;;;;5000774;28;20103;-66
2023/03/19 02:35:45;;;;;;;6.30;3.30;;;12.00;99.90;;;;;;5016438;28;20026;-67
2023/03/19 02:38:12;;;;;;;7.10;2.95;;;12.10;99.90;;;;;;5035789;28;20022;-67
2023/03/19 02:40:44;;;;;;;6.43;3.00;;;12.20;99.90;;;;;;5035855;28;20025;-66
2023/03/19 02:43:10;;;;;;;8.40;3.10;;;12.30;99.90;;;;;;5035792;28;20475;-66
2023/03/19 02:45:35;;;;;;;5.60;3.10;;;12.30;99.90;;;;;;5035917;28;20156;-66
2023/03/19 02:48:01;;;;;;;6.27;3.07;;;12.30;99.90;;;;;;5035833;28;20100;-67
2023/03/19 02:50:26;;;;;;;6.88;2.67;;;12.40;99.90;;;;;;5035339;28;20040;-66
2023/03/19 02:52:52;;;;;;;5.37;2.60;;;12.30;99.90;;;;;;5035263;28;20479;-66
2023/03/19 02:55:18;;;;;;;7.28;3.17;;;12.20;99.90;;;;;;5035323;28;20053;-66
2023/03/19 02:57:44;;;;;;;5.43;2.90;;;12.40;99.90;;;;;;5035460;28;20029;-67
2023/03/19 03:00:11;;;;;;;5.00;2.80;;;12.40;99.90;;;;;;5035623;28;20104;-67
2023/03/19 03:02:37;;;;;;;4.82;2.80;;;12.30;99.90;;;;;;5035466;28;20061;-66
2023/03/19 03:05:04;;;;;;;4.65;2.90;;;12.30;99.90;;;;;;5017663;28;20025;-67
2023/03/19 03:07:29;;;;;;;;;;;12.10;99.90;;;;;;5035442;28;20060;-67
2023/03/19 03:09:55;;;;;;;6.90;2.75;;;12.10;99.90;;;;;;5035193;28;19916;-66
2023/03/19 03:12:21;;;;;;;6.40;2.80;;;12.20;99.90;;;;;;5035230;28;20445;-66
2023/03/19 03:14:47;;;;;;;6.93;3.38;;;12.10;99.90;;;;;;5035411;28;20025;-66
2023/03/19 03:17:13;;;;;;;5.40;2.90;;;12.10;99.90;;;;;;5035326;28;20057;-66
2023/03/19 03:19:38;;;;;;;7.03;3.38;;;12.10;99.90;;;;;;5035091;28;20032;-66
2023/03/19 03:22:04;;;;;;;8.47;3.00;;;12.10;99.90;;;;;;5035065;28;20030;-66
2023/03/19 03:24:30;;;;;;;5.85;2.78;;;12.10;99.90;;;;;;5035345;28;20342;-66
2023/03/19 03:26:55;;;;;;;6.57;2.65;;;12.20;99.90;;;;;;5035033;28;20036;-67
2023/03/19 03:29:21;;;;;;;6.53;3.23;;;12.20;99.90;;;;;;5035584;28;20355;-68
2023/03/19 03:31:46;;;;;;;7.60;2.90;;;12.20;99.90;;;;;;5034910;28;20340;-67
2023/03/19 03:34:12;;;;;;;6.67;3.43;;;12.20;99.90;;;;;;5035097;28;20426;-68
2023/03/19 03:36:38;;;;;;;5.67;3.03;;;12.10;99.90;;;;;;5035480;28;20025;-67
2023/03/19 03:39:04;;;;;;;11.13;3.72;;;12.10;99.90;;;;;;5034620;28;20568;-65
2023/03/19 03:41:29;;;;;;;8.75;3.33;;;12.00;99.90;;;;;;5034804;28;20026;-66
2023/03/19 03:43:55;;;;;;;7.20;3.20;;;12.00;99.90;;;;;;5033806;28;20482;-67
2023/03/19 03:46:21;;;;;;;5.27;2.43;;;12.10;99.90;;;;;;5034522;28;20030;-67
2023/03/19 03:48:48;;;;;;;5.53;2.92;;;12.10;99.90;;;;;;5034923;28;20076;-67
2023/03/19 03:51:14;;;;;;;6.57;3.22;;;12.20;99.90;;;;;;5016604;28;20498;-66
2023/03/19 03:53:40;;;;;;;9.02;3.30;;;12.10;99.90;;;;;;5034319;28;20083;-66
2023/03/19 03:56:06;;;;;;;6.50;3.28;;;12.00;99.90;;;;;;5034351;28;20034;-66
2023/03/19 03:58:32;;;;;;;7.55;3.00;;;11.90;99.90;;;;;;5016857;28;20060;-67
2023/03/19 04:00:57;;;;;;;7.35;3.03;;;11.90;99.90;;;;;;5034680;28;20119;-67
2023/03/19 04:03:23;;;;;;;7.03;3.43;;;11.90;99.90;;;;;;5034382;28;20032;-67
2023/03/19 04:05:49;;;;;;;4.43;2.60;;;11.90;99.90;;;;;;5034502;28;20356;-67
2023/03/19 04:08:15;;;;;;;8.52;3.28;;;11.90;99.90;;;;;;5034236;28;20033;-66
2023/03/19 04:10:41;;;;;;;6.72;3.33;;;12.00;99.90;;;;;;5016239;28;20022;-66
2023/03/19 04:13:11;;;;;;;5.65;3.50;;;11.90;99.90;;;;;;5034112;28;20034;-66
2023/03/19 04:15:37;;;;;;;7.38;3.40;;;11.90;99.90;;;;;;5034495;28;20018;-66
2023/03/19 04:18:03;;;;;;;6.47;3.40;;;11.90;99.90;;;;;;5034575;28;20026;-67
2023/03/19 04:20:28;;;;;;;7.17;3.20;;;11.80;99.90;;;;;;5036609;28;20088;-67
2023/03/19 04:22:54;;;;;;;6.13;3.10;;;11.80;99.90;;;;;;5020098;28;20026;-67
2023/03/19 04:25:20;;;;;;;7.32;3.13;;;11.80;99.90;;;;;;5017447;28;20486;-67
2023/03/19 04:27:46;;;;;;;5.73;2.63;;;11.90;99.90;;;;;;5034700;28;20032;-67
2023/03/19 04:30:12;;;;;;;6.40;3.10;;;11.80;99.90;;;;;;5016995;28;20048;-66
2023/03/19 04:32:37;;;;;;;6.78;2.97;;;12.00;99.90;;;;;;5017558;28;20033;-67
2023/03/19 04:35:03;;;;;;;6.90;3.17;;;12.00;99.90;;;;;;5036961;28;20025;-66
2023/03/19 04:37:29;;;;;;;5.38;3.22;;;12.10;99.90;;;;;;5037873;28;20029;-67
2023/03/19 04:39:55;;;;;;;10.60;3.08;;;12.10;99.90;;;;;;5036797;28;20044;-67
2023/03/19 04:42:21;;;;;;;7.00;2.90;;;12.10;99.90;;;;;;5035242;28;20029;-66
2023/03/19 04:44:47;;;;;;;5.97;2.93;;;12.10;99.90;;;;;;5034269;28;20033;-66
2023/03/19 04:47:13;;;;;;;5.78;2.90;;;12.00;99.90;;;;;;5034577;28;20046;-66
2023/03/19 04:49:38;;;;;;;5.00;3.10;;;12.10;99.90;;;;;;5039256;28;20040;-67
2023/03/19 04:52:04;;;;;;;5.87;2.80;;;12.10;99.90;;;;;;5062933;22;20295;-70
2023/03/19 04:54:30;;;;;;;6.50;2.92;;;12.10;99.90;;;;;;5036543;28;20051;-72
2023/03/19 04:56:56;;;;;;;4.68;3.20;;;12.20;99.90;;;;;;5036207;28;20038;-71
2023/03/19 04:59:21;;;;;;;5.10;2.73;;;12.10;99.90;;;;;;5036556;28;20542;-71
2023/03/19 05:01:47;;;;;;;7.07;3.53;;;12.20;99.90;;;;;;5054761;28;20017;-71
2023/03/19 05:04:12;;;;;;;8.80;3.13;;;12.20;99.90;;;;;;5036732;28;20056;-71
2023/03/19 05:06:38;;;;;;;5.00;3.03;;;12.20;99.90;;;;;;5054199;28;20036;-71
2023/03/19 05:09:06;;;;;;;6.15;2.85;;;12.20;99.90;;;;;;5054485;28;20059;-72
2023/03/19 05:11:32;;;;;;;9.27;3.05;;;12.10;99.90;;;;;;5036232;28;20044;-72
2023/03/19 05:13:57;;;;;;;6.20;2.90;;;12.00;99.90;;;;;;5036619;28;20389;-72
2023/03/19 05:16:23;;;;;;;5.83;3.00;;;12.00;99.90;;;;;;5054023;28;20021;-70
2023/03/19 05:18:48;;;;;;;5.93;3.83;;;12.10;99.90;;;;;;5036824;28;20491;-71
2023/03/19 05:21:14;;;;;;;7.07;3.00;;;12.20;99.90;;;;;;5035958;28;20033;-72
2023/03/19 05:23:40;;;;;;;7.32;3.13;;;12.20;99.90;;;;;;5054421;28;20381;-71
2023/03/19 05:26:07;;;;;;;9.02;2.90;;;12.20;99.90;;;;;;5037474;28;20021;-71
2023/03/19 05:28:33;;;;;;;8.18;3.30;;;12.10;99.90;;;;;;5039183;28;20034;-71
2023/03/19 05:30:58;;;;;;;9.68;3.47;;;12.10;99.90;;;;;;5056850;28;20046;-71
2023/03/19 05:33:24;;;;;;;6.93;2.83;;;12.10;99.90;;;;;;5039710;28;20508;-70
2023/03/19 05:35:50;;;;;;;5.15;3.13;;;12.20;99.90;;;;;;5039183;28;20033;-71
2023/03/19 05:38:16;;;;;;;6.22;2.78;;;12.20;99.90;;;;;;5039029;28;20029;-70
2023/03/19 05:40:41;;;;;;;6.78;3.35;;;12.20;99.90;;;;;;5058782;28;20021;-71
2023/03/19 05:43:08;;;;;;;9.00;3.67;;;12.30;99.90;;;;;;5059554;28;20097;-72
2023/03/19 05:45:34;;;;;;;8.07;3.10;;;12.30;99.90;;;;;;5041262;28;20264;-72
2023/03/19 05:48:00;;;;;;;6.28;3.13;;;12.20;99.90;;;;;;5041008;28;20120;-71
2023/03/19 05:50:26;;;;;;;6.32;3.10;;;12.10;99.90;;;;;;5057156;28;20025;-72
2023/03/19 05:52:51;;;;;;;7.77;2.77;;;12.10;99.90;;;;;;5037204;28;20043;-70
2023/03/19 05:55:17;;;;;;;7.83;3.23;;;12.00;99.90;;;;;;5036679;28;20032;-71
2023/03/19 05:57:43;;;;;;;7.67;3.17;;;12.00;99.90;;;;;;5036592;28;20194;-71
2023/03/19 06:00:09;;;;;;;7.97;3.03;;;11.90;99.90;;;;;;5055744;28;20029;-70
2023/03/19 06:02:35;;;;;;;6.97;2.88;;;11.90;99.90;;;;;;5036549;28;20025;-71
2023/03/19 06:05:01;;;;;;;4.25;2.78;;;11.90;99.90;;;;;;5036339;28;20494;-71
2023/03/19 06:07:26;;;;;;;7.13;2.70;;;11.90;99.90;;;;;;5055587;28;20044;-71
2023/03/19 06:09:52;;;;;;;5.07;2.67;;;11.80;99.90;;;;;;5040085;28;20476;-71
2023/03/19 06:12:17;;;;;;;6.22;2.78;;;11.80;99.90;;;;;;5040134;28;20086;-71
2023/03/19 06:14:43;;;;;;;4.03;2.73;;;11.80;99.90;;;;;;5059136;28;20072;-71
2023/03/19 06:17:09;;;;;;;5.80;2.85;;;11.80;99.90;;;;;;5042100;28;20108;-71
2023/03/19 06:19:35;;;;;;;5.60;2.73;;;11.90;99.90;;;;;;5048944;28;20032;-71
2023/03/19 06:22:00;;;;;;;6.05;2.85;;;12.00;99.90;;;;;;5069210;28;20021;-71
2023/03/19 06:24:26;;;;;;;7.23;2.90;;;11.90;99.90;;;;;;5069479;28;20052;-71
2023/03/19 06:26:51;;;;;;;5.87;2.80;;;11.90;99.90;;;;;;5049930;28;20741;-71
2023/03/19 06:29:17;;;;;;;7.87;3.57;;;11.90;99.90;;;;;;5039388;28;20035;-71
2023/03/19 06:31:43;;;;;;;5.30;3.05;;;12.00;99.90;;;;;;5039941;28;20032;-71
2023/03/19 06:34:08;;;;;;;8.73;3.10;;;12.10;99.90;;;;;;5039732;28;20025;-71
2023/03/19 06:36:34;;;;;;;6.17;3.00;;;12.20;99.90;;;;;;5057039;28;20446;-72
2023/03/19 06:39:00;;;;;;;5.23;2.77;;;12.20;99.90;;;;;;5039097;28;20632;-71
2023/03/19 06:41:26;;;;;;;7.23;3.07;;;12.30;99.90;;;;;;5056981;28;20524;-71
2023/03/19 06:43:52;;;;;;;8.35;3.20;;;12.40;99.90;;;;;;5046583;28;20264;-72
2023/03/19 06:46:17;;;;;;;6.25;3.90;;;12.50;99.90;;;;;;5064425;28;20038;-71
2023/03/19 06:48:43;;;;;;;5.53;2.83;;;12.60;99.90;;;;;;5039981;28;20017;-71
2023/03/19 06:51:08;;;;;;;7.67;3.00;;;12.70;99.90;;;;;;5056816;28;20025;-71
2023/03/19 06:53:34;;;;;;;6.53;2.83;;;12.70;99.90;;;;;;5056919;28;20047;-71
2023/03/19 06:55:59;;;;;;;8.60;3.38;;;12.60;99.90;;;;;;5057247;28;20071;-71
2023/03/19 06:58:25;;;;;;;5.37;2.83;;;12.60;99.90;;;;;;5056902;28;20035;-71
2023/03/19 07:00:54;;;;;;;5.70;2.85;;;12.70;99.90;;;;;;5038980;28;20481;-71
2023/03/19 07:03:20;;;;;;;8.32;3.20;;;12.70;99.90;;;;;;5038544;28;20505;-71
2023/03/19 07:05:49;;;;;;;6.72;3.20;;;12.70;99.90;;;;;;5038705;28;20036;-71
2023/03/19 07:08:14;;;;;;;6.07;2.92;;;12.70;99.90;;;;;;5056768;28;20493;-72
2023/03/19 07:10:40;;;;;;;6.27;3.10;;;12.70;99.90;;;;;;5056784;28;20033;-70
2023/03/19 07:13:06;;;;;;;19.13;10.10;;;13.00;99.90;;;;;;5038792;28;20025;-71
2023/03/19 07:15:32;;;;;;;6.05;3.42;;;13.00;99.90;;;;;;5039143;28;20032;-71
2023/03/19 07:17:58;;;;;;;;;;;12.90;99.90;;;;;;5038447;28;20025;-72
2023/03/19 07:20:23;;;;;;;4.20;3.28;;;12.90;99.90;;;;;;5038251;28;20272;-71
2023/03/19 07:22:52;;;;;;;5.13;3.10;;;12.90;99.90;;;;;;5038286;28;20075;-70
2023/03/19 07:25:18;;;;;;;6.25;2.78;;;12.80;99.90;;;;;;5057155;28;20021;-71
2023/03/19 07:27:44;;;;;;;7.50;2.78;;;12.80;99.90;;;;;;5038552;28;20087;-71
2023/03/19 07:30:11;;;;;;;4.75;2.78;;;12.70;99.90;;;;;;5057149;28;20025;-72
2023/03/19 07:32:37;;;;;;;4.55;2.97;;;12.70;99.90;;;;;;5042241;28;20512;-71
2023/03/19 07:35:04;;;;;;;7.40;3.20;;;12.90;99.90;;;;;;5063627;28;20020;-71
2023/03/19 07:37:30;;;;;;;7.32;2.90;;;13.00;99.90;;;;;;5062740;28;20029;-71
2023/03/19 07:39:56;;;;;;;6.53;3.15;;;13.20;99.90;;;;;;5061272;28;20029;-71
2023/03/19 07:42:22;;;;;;;8.47;2.80;;;13.40;99.90;;;;;;5063236;28;20036;-72
2023/03/19 07:44:47;;;;;;;5.25;2.95;;;13.40;99.90;;;;;;5063109;28;20025;-72
2023/03/19 07:47:13;;;;;;;4.53;2.43;;;13.50;99.90;;;;;;5047707;28;20029;-71
2023/03/19 07:49:39;;;;;;;5.30;2.90;;;13.40;99.90;;;;;;5041430;28;20311;-72
2023/03/19 07:52:04;;;;;;;7.63;3.75;;;13.60;99.90;;;;;;5049988;28;20514;-71
2023/03/19 07:54:30;;;;;;;16.47;8.80;;;13.60;99.90;;;;;;5045954;28;20033;-71
2023/03/19 07:56:55;;;;;;;7.80;3.97;;;13.50;99.90;;;;;;5040824;28;20290;-71
2023/03/19 07:59:21;;;;;;;7.73;3.03;;;13.50;99.90;;;;;;5022028;28;20040;-72
2023/03/19 08:01:47;;;;;;;5.13;2.85;;;13.90;99.90;;;;;;5038775;28;20450;-71
2023/03/19 08:04:12;;;;;;;7.53;3.13;;;13.90;99.80;;;;;;5029028;28;20032;-71
2023/03/19 08:06:38;;;;;;;6.77;2.93;;;13.80;99.80;;;;;;5026638;28;20095;-72
2023/03/19 08:09:04;;;;;;;7.35;3.22;;;13.90;99.80;;;;;;5060860;28;20469;-71
2023/03/19 08:11:30;;;;;;;4.55;2.75;;;14.10;99.40;;;;;;5043568;28;20041;-71
2023/03/19 08:13:55;;;;;;;6.60;3.15;;;14.40;99.20;;;;;;5048576;28;20029;-71
2023/03/19 08:16:21;;;;;;;5.82;3.08;;;14.60;98.90;;;;;;5063062;28;20107;-71
2023/03/19 08:18:46;;;;;;;6.60;3.10;;;14.40;98.90;;;;;;5039870;28;20129;-71
2023/03/19 08:21:12;;;;;;;8.03;2.80;;;14.50;98.70;;;;;;5031366;28;20028;-72
2023/03/19 08:23:38;;;;;;;6.63;2.30;;;14.70;98.50;;;;;;5054077;28;20028;-72
2023/03/19 08:26:03;;;;;;;6.80;3.23;;;14.80;98.20;;;;;;5038458;28;20259;-72
2023/03/19 08:28:29;;;;;;;6.68;3.38;;;15.00;97.90;;;;;;5032303;28;20025;-71
2023/03/19 08:30:55;;;;;;;7.20;3.42;;;15.20;97.70;;;;;;5021885;28;20040;-71
2023/03/19 08:33:21;;;;;;;5.28;3.15;;;15.10;97.80;;;;;;5020337;28;20401;-71
2023/03/19 08:35:47;;;;;;;4.75;2.70;;;15.10;97.70;;;;;;5021441;28;20549;-71
2023/03/19 08:38:12;;;;;;;4.50;2.67;;;15.10;97.50;;;;;;5040748;28;20025;-72
2023/03/19 08:40:38;;;;;;;4.17;2.20;;;15.00;96.90;;;;;;5039842;28;20068;-71
2023/03/19 08:43:04;;;;;;;7.68;2.30;;;15.00;97.20;;;;;;5022832;28;20279;-71
2023/03/19 08:45:29;;;;;;;4.93;2.25;;;14.90;96.90;;;;;;5040610;28;20036;-71
2023/03/19 08:47:56;;;;;;;5.87;2.13;;;15.10;96.30;;;;;;5053843;28;20025;-71
2023/03/19 08:50:22;;;;;;;5.05;2.50;;;15.20;96.00;;;;;;5049185;28;20282;-72
2023/03/19 08:52:48;;;;;;;5.88;2.55;;;15.40;95.70;;;;;;5046112;28;20034;-71
2023/03/19 08:55:14;;;;;;;4.63;2.65;;;15.50;95.30;;;;;;5038031;28;20057;-72
2023/03/19 08:57:40;;;;;;;3.90;2.67;;;15.90;94.90;;;;;;5043361;28;20033;-71
2023/03/19 09:00:06;;;;;;;4.95;2.33;;;16.30;94.60;;;;;;5025226;28;20025;-72
2023/03/19 09:02:32;;;;;;;5.32;2.42;;;16.80;94.00;;;;;;5040066;28;20030;-72
2023/03/19 09:04:58;;;;;;;4.68;2.25;;;17.20;93.40;;;;;;5059805;28;20048;-72
2023/03/19 09:07:23;;;;;;;4.97;2.20;;;17.40;92.40;;;;;;5043463;28;20024;-69
2023/03/19 09:09:49;;;;;;;4.63;2.43;;;17.40;91.70;;;;;;5057453;28;20298;-69
2023/03/19 09:12:16;;;;;;;4.72;1.90;;;17.40;91.30;;;;;;5035418;28;20126;-69
2023/03/19 09:14:42;;;;;;;2.75;1.58;;;17.60;91.10;;;;;;5058067;28;20037;-69
2023/03/19 09:17:08;;;;;;;;;;;18.00;91.00;;;;;;5053821;28;20033;-68
2023/03/19 09:19:34;;;;;;;3.83;1.90;;;18.90;88.90;;;;;;5031959;28;19975;-69
2023/03/19 09:22:00;;;;;;;;;;;18.50;88.70;;;;;;5054635;28;20436;-69
2023/03/19 09:24:26;;;;;;;4.82;2.55;;;18.10;89.80;;;;;;5054625;28;19905;-68
2023/03/19 09:26:52;;;;;;;4.60;2.10;;;17.80;90.20;;;;;;5054809;28;20473;-68
2023/03/19 09:29:17;;;;;;;7.90;3.03;;;18.00;90.50;;;;;;5036551;28;20131;-70
2023/03/19 09:31:43;;;;;;;5.40;2.10;;;17.90;90.20;;;;;;5035772;28;20159;-70
2023/03/19 09:34:09;;;;;;;5.45;2.42;;;17.90;90.20;;;;;;5053821;28;20025;-69
2023/03/19 09:36:36;;;;;;;4.63;2.13;;;18.10;89.70;;;;;;5035630;28;20021;-69
2023/03/19 09:39:04;;;;;;;4.45;2.30;;;18.40;89.40;;;;;;5036016;28;20021;-68
2023/03/19 09:41:58;;;;;;;5.22;2.55;;;20.20;86.60;;;;;;5036305;28;20025;-68
2023/03/19 09:44:31;;;;;;;5.60;2.33;;;20.60;83.90;;;;;;5057745;28;20025;-69
2023/03/19 09:47:17;;;;;;;8.77;2.92;;;20.20;83.60;;;;;;5058020;28;20025;-69
2023/03/19 09:49:45;;;;;;;5.05;2.50;;;22.00;82.50;;;;;;5057622;28;20025;-70
2023/03/19 09:52:29;;;;;;;4.43;2.28;;;25.10;76.50;;;;;;5032445;28;20044;-70
2023/03/19 09:54:59;;;;;;;3.40;2.25;;;26.80;70.60;;;;;;5046444;28;20044;-69
2023/03/19 09:57:28;;;;;;;5.13;1.70;;;28.50;64.50;;;;;;5038370;28;20026;-69
2023/03/19 09:59:54;;;;;;;4.38;1.92;;;29.00;60.90;;;;;;5038574;28;20082;-69
2023/03/19 10:02:42;;;;;;;8.20;1.88;;;28.30;59.50;;;;;;5038641;28;20022;-69
2023/03/19 10:05:30;;;;;;;3.53;1.80;;;28.40;58.80;;;;;;5037690;28;20520;-70
2023/03/19 10:07:58;;;;;;;3.72;1.48;;;27.90;58.50;;;;;;5038149;28;20032;-68
2023/03/19 10:10:50;;;;;;;4.82;2.10;;;27.20;58.20;;;;;;5048662;28;20022;-70
2023/03/19 10:13:48;;;;;;;4.47;1.60;;;26.40;59.30;;;;;;5035878;28;20029;-71
2023/03/19 10:16:20;;;;;;;5.05;1.90;;;26.20;59.00;;;;;;5054297;28;20474;-69
2023/03/19 10:18:49;;;;;;;3.08;1.60;;;23.80;61.90;;;;;;5039234;28;20032;-69
2023/03/19 10:21:33;;;;;;;4.57;1.83;;;23.90;63.70;;;;;;5019815;28;20025;-71
2023/03/19 10:24:17;;;;;;;2.83;1.75;;;25.80;61.30;;;;;;5038344;28;20076;-68
2023/03/19 10:26:45;;;;;;;6.43;1.92;;;27.30;59.70;;;;;;5048610;28;20021;-68
2023/03/19 10:29:19;;;;;;;2.65;1.48;;;28.90;57.70;;;;;;5019653;28;20018;-68
2023/03/19 10:32:08;;;;;;;4.40;1.80;;;30.10;56.00;;;;;;5045821;28;20033;-68
2023/03/19 10:34:36;;;;;;;4.53;2.17;;;29.00;55.60;;;;;;5052019;28;20036;-68
2023/03/19 10:37:19;;;;;;;6.90;1.73;;;28.70;56.40;;;;;;5036683;28;20112;-69
2023/03/19 10:39:47;;;;;;;2.75;1.65;;;28.30;56.40;;;;;;5021879;28;20083;-68
2023/03/19 10:42:25;;;;;;;4.10;2.10;;;26.60;57.50;;;;;;5056892;28;20063;-67
2023/03/19 10:44:59;;;;;;;2.40;1.80;;;24.40;60.70;;;;;;5059918;28;20104;-68
2023/03/19 10:47:26;;;;;;;4.88;2.03;;;23.50;63.10;;;;;;5041420;28;20108;-68
2023/03/19 10:49:52;;;;;;;3.92;1.90;;;22.60;64.40;;;;;;5059019;28;20466;-67
2023/03/19 10:52:25;;;;;;;5.30;1.90;;;21.80;66.00;;;;;;5041700;28;20052;-68
2023/03/19 10:55:16;;;;;;;3.92;1.98;;;21.20;67.50;;;;;;5059512;28;20069;-68
2023/03/19 10:57:43;;;;;;;4.57;1.80;;;20.50;68.70;;;;;;5020442;28;20086;-67
2023/03/19 11:00:17;;;;;;;5.38;1.50;;;20.60;68.70;;;;;;5029811;28;20079;-67
2023/03/19 11:02:48;;;;;;;3.70;1.58;;;20.60;68.90;;;;;;5038476;28;20075;-67
2023/03/19 11:05:14;;;;;;;4.38;1.63;;;21.50;68.10;;;;;;5058145;28;20075;-67
2023/03/19 11:07:39;;;;;;;3.53;1.88;;;22.70;66.20;;;;;;5042579;22;20123;-67
2023/03/19 11:10:15;;;;;;;3.35;1.60;;;22.50;65.10;;;;;;5022172;28;20046;-66
2023/03/19 11:12:46;;;;;;;5.10;1.80;;;21.60;65.60;;;;;;5002835;28;20026;-66
2023/03/19 11:15:20;;;;;;;6.22;1.95;;;20.90;66.60;;;;;;5015542;28;20018;-67
2023/03/19 11:17:55;;;;;;;4.07;2.05;;;20.20;68.20;;;;;;5019392;28;20034;-67
2023/03/19 11:20:31;;;;;;;4.15;2.13;;;19.50;69.80;;;;;;5023865;28;20450;-68
2023/03/19 11:23:01;;;;;;;6.90;1.73;;;19.10;71.70;;;;;;5011979;28;20025;-68
2023/03/19 11:25:40;;;;;;;5.28;2.40;;;18.80;73.00;;;;;;5034650;28;20029;-69
2023/03/19 11:28:16;;;;;;;5.20;1.98;;;18.40;74.40;;;;;;5017406;28;20079;-70
2023/03/19 11:31:00;;;;;;;3.67;1.90;;;18.50;75.20;;;;;;5017087;28;20083;-69
2023/03/19 11:33:50;;;;;;;5.15;2.28;;;18.50;75.60;;;;;;5035141;28;20504;-70
2023/03/19 11:36:27;;;;;;;6.60;2.30;;;18.40;76.20;;;;;;5017081;28;20026;-68
2023/03/19 11:39:29;;;;;;;8.00;2.97;;;18.80;75.50;;;;;;5034624;28;20120;-69
2023/03/19 11:42:09;;;;;;;6.15;2.80;;;19.00;75.40;;;;;;5016601;28;20021;-70
2023/03/19 11:44:58;;;;;;;6.80;2.17;;;19.00;76.00;;;;;;5034702;28;20035;-69
2023/03/19 11:47:31;;;;;;;4.72;2.38;;;19.30;76.00;;;;;;5034449;28;20044;-69
2023/03/19 11:50:21;;;;;;;6.82;2.10;;;19.50;75.30;;;;;;5034573;28;20025;-70
2023/03/19 11:53:15;;;;;;;6.35;2.25;;;19.20;75.60;;;;;;5016502;28;20017;-69
2023/03/19 11:56:07;;;;;;;5.53;2.10;;;18.80;76.50;;;;;;5034418;28;20057;-68
2023/03/19 11:58:48;;;;;;;4.85;2.28;;;18.80;77.90;;;;;;5031540;28;20492;-67
2023/03/19 12:01:53;;;;;;;4.15;2.47;;;18.80;77.60;;;;;;5026320;28;20025;-67
2023/03/19 12:04:43;;;;;;;10.60;4.47;;;18.80;78.20;;;;;;5044239;28;20018;-70
2023/03/19 12:10:03;;;;;;;4.30;1.98;;;19.00;75.90;;;;;;5104850;27;20327;-67
2023/03/19 12:12:57;;;;;;;5.05;2.05;;;19.00;76.60;;;;;;5084155;28;20040;-67
2023/03/19 12:15:36;;;;;;;7.63;2.00;;;18.90;77.60;;;;;;5083141;28;20047;-67
2023/03/19 12:18:39;;;;;;;4.25;1.60;;;18.90;77.10;;;;;;5076585;28;20139;-69
2023/03/19 12:21:33;;;;;;;4.85;1.98;;;18.80;76.80;;;;;;5082061;28;20381;-65
2023/03/19 12:24:27;;;;;;;3.50;1.60;;;18.60;76.50;;;;;;5070300;28;20079;-70
2023/03/19 12:27:33;;;;;;;6.30;2.08;;;18.20;77.60;;;;;;5069410;28;20032;-67
2023/03/19 12:30:20;;;;;;;6.78;2.08;;;18.20;78.30;;;;;;5011615;28;20526;-70
2023/03/19 12:33:15;;;;;;;9.40;4.18;;;18.20;79.00;;;;;;5027992;28;20030;-69
2023/03/19 12:35:48;;;;;;;201.10;76.95;;;18.30;81.10;;;;;;5011332;28;20041;-68
2023/03/19 12:38:34;;;;;;;178.73;76.13;;;18.20;81.40;;;;;;5027305;28;20041;-69
2023/03/19 12:41:06;;;;;;;206.77;91.65;;;18.00;81.80;;;;;;5027488;28;20091;-71
2023/03/19 12:44:16;;;;;;;138.85;58.55;;;17.90;81.60;;;;;;5027637;28;20421;-69
2023/03/19 12:47:12;;;;;;;8.15;4.90;;;17.90;84.50;;;;;;4968928;28;20039;-71
2023/03/19 12:49:46;;;;;;;14.55;6.78;;;17.90;81.00;;;;;;4969248;28;20030;-70
2023/03/19 12:52:23;;;;;;;10.48;4.88;;;18.00;80.60;;;;;;4971653;28;20043;-70
2023/03/19 12:55:17;;;;;;;9.18;2.70;;;17.90;80.20;;;;;;4987960;28;20451;-71
2023/03/19 12:57:57;;;;;;;7.05;2.50;;;17.90;80.30;;;;;;4987718;28;20074;-71
2023/03/19 13:00:43;;;;;;;3.42;1.80;;;17.90;80.70;;;;;;4988172;28;20109;-71
2023/03/19 13:03:17;;;;;;;5.32;2.28;;;17.80;80.60;;;;;;4987827;28;20031;-70